Liverpool, Pennsylvania
Current Conditions -  °F | °C
As of 12:53 PM on Friday 24 Oct 2014 (Local Time) from KSEG Reporting Station
Clear Clear  
Wind Chill: 66°   Ceiling: Unl
Heat Index: 66°   Visibility: 10mi
Dew Point: 41°   Wind: 10mph
Humidity: 40%   Direction: 340°NNW
Pressure: 29.91"   Gusts: 17mph
Location:  40.57°N, 76.99°W
Report Text: KSEG 241653Z AUTO 34009G15KT 300V010 10SM CLR 19/05 A2991 RMK AO2 SLP126 T01890050
Loading
Personal Weather Stations






























Interactive Weather Map
Tropical Storm Tracking
New forecast layout! Learn more

10-Day Weather Forecast

Advertisements
Track Severe Weather on mobile